Taos, Missouri
Current Conditions -  °F | °C
As of 3:11 PM on Saturday 22 Nov 2014 (Local Time) from KJEF Reporting Station
Broken Clouds Broken Clouds  
Wind Chill: 15°   Ceiling: 10000
Heat Index: 15°   Visibility: 10mi
Dew Point: 10°   Wind: 7mph
Humidity: 72%   Direction: 170°S
Pressure: 29.91"   Gusts: NA
Location:  38.5003°N, 92.1516°W
Report Text: KJEF 222111Z 17006KT 10SM SCT026 SCT030 BKN100 15/10 A2991 RMK AO2 T01500100
Loading
Personal Weather Stations






























Interactive Weather Map New forecast layout! Learn more

10-Day Weather Forecast

Advertisements
Track Severe Weather on mobile